Iaşi, România

02:00 PM EEST on octombrie 23, 2014 (GMT +0300)
Iasi | Change Station
CLOSE
Current Station
Aeroport
Location: Iasi,
Elevation: 338 ft
Nearby Weather Stations

Elev 338 ft 47.16 °N, 27.63 °E | Updated 30 minutes ago

Overcast
Cer acoperit
55 °F
Feels Like 55 °F
N
14
Vânt variabil Vânt from NE

astăzi
High -- | Low -- °F
--% Chance of Precip.
Ieri
High -- | Low -- °F
Precip. -- inch
7:38 AM 6:08 PM
Semilună în descreştere, 0% visible
Presiunea 29.77 inch
Vizibilitatea 5.0 mile
Nori Few 700 ft
Cer acoperit 900 ft
Punctul de rouă 52 °F
Umiditatea 88%
Precipitaţii 0.00 inch
Adâncimea zăpezii Not available.
UV 1 out of 12
Pollen Not available.
Calitatea aerului Not available.
Flu Activity Not available.
METAR LRIA 231030Z 04012KT 8000 FEW007 OVC009 13/11 Q1008

More Conditions Fewer Conditions

Presiunea 29.77 inch
Vizibilitatea 5.0 mile
Nori Few 700 ft
Cer acoperit 900 ft
Punctul de rouă 52 °F
Umiditatea 88%
Precipitaţii 0.00 inch
Adâncimea zăpezii Not available.
UV 1 out of 12
Pollen Not available.
Calitatea aerului Not available.
Flu Activity Not available.
METAR LRIA 231030Z 04012KT 8000 FEW007 OVC009 13/11 Q1008

More Conditions Fewer Conditions

10-Day Weather Forecast

Almanac

Astronomie

Oct. 23, 2014 Răsărit Apus
Timpul Actual 7:38 AM EEST 6:08 PM EEST
Crepusculul Civil 7:07 AM EEST 6:39 PM EEST
Crepusculul nautic 6:31 AM EEST 7:14 PM EEST
Răsărit Astronomic 5:56 AM EEST 7:50 PM EEST
Luna 6:56 AM EEST 5:59 PM EEST
Durata zilei lumină 11h 31m
Lungimea zilei
10h 29m
Tomorrow will be 3m 10s shorter.
Semilună în descreştere, 0% of the Moon is Illuminated
astăzi
Semilună în descreştere
Oct 23
New
Oct 30
Primul pătrar
Nov 6
Lună plină
Nov 14
Ultimul pătrar

Yesterday's Extremes

Country Highs Country Lows

Community

WunderPhotos

Upload Photos

1,764,204 photos uploaded!

Nearby

Calitatea aerului

Not available.

Adâncimea zapezii

Not available.

Earthquake Activity

Oraş Distance Mag. Time & Date
No recent earthquake activity has been reported nearby.
Minimum magnitude displayed is 2.5.

Coastal Water Temperatures

Locul Temperatura
No Stations Reporting

Nearby Weather Stations